sensor_id;sensor_type;location;lat;lon;timestamp;pressure;altitude;pressure_sealevel;temperature;humidity
56876;BME280;42622;49.972;8.452;2023-04-22T00:02:08;100037.50;;;8.56;100.00
56876;BME280;42622;49.972;8.452;2023-04-22T00:04:37;100035.16;;;8.51;100.00
56876;BME280;42622;49.972;8.452;2023-04-22T00:07:03;100035.38;;;8.48;100.00
56876;BME280;42622;49.972;8.452;2023-04-22T00:09:28;100037.16;;;8.48;100.00
56876;BME280;42622;49.972;8.452;2023-04-22T00:11:54;100031.03;;;8.47;100.00
56876;BME280;42622;49.972;8.452;2023-04-22T00:14:20;100037.25;;;8.46;100.00
56876;BME280;42622;49.972;8.452;2023-04-22T00:16:46;100039.13;;;8.44;100.00
56876;BME280;42622;49.972;8.452;2023-04-22T00:19:11;100038.41;;;8.42;100.00
56876;BME280;42622;49.972;8.452;2023-04-22T00:21:37;100040.22;;;8.42;100.00
56876;BME280;42622;49.972;8.452;2023-04-22T00:24:03;100032.38;;;8.40;100.00
56876;BME280;42622;49.972;8.452;2023-04-22T00:26:29;100021.97;;;8.38;100.00
56876;BME280;42622;49.972;8.452;2023-04-22T00:28:56;100019.38;;;8.37;100.00
56876;BME280;42622;49.972;8.452;2023-04-22T00:31:21;100029.91;;;8.37;100.00
56876;BME280;42622;49.972;8.452;2023-04-22T00:33:47;100028.06;;;8.39;100.00
56876;BME280;42622;49.972;8.452;2023-04-22T00:36:13;100029.91;;;8.37;100.00
56876;BME280;42622;49.972;8.452;2023-04-22T00:38:40;100024.75;;;8.35;100.00
56876;BME280;42622;49.972;8.452;2023-04-22T00:41:09;100025.59;;;8.36;100.00
56876;BME280;42622;49.972;8.452;2023-04-22T00:43:36;100025.56;;;8.37;100.00
56876;BME280;42622;49.972;8.452;2023-04-22T00:46:01;100023.75;;;8.38;100.00
56876;BME280;42622;49.972;8.452;2023-04-22T00:48:28;100017.53;;;8.39;100.00
56876;BME280;42622;49.972;8.452;2023-04-22T00:50:55;100023.66;;;8.40;100.00
56876;BME280;42622;49.972;8.452;2023-04-22T00:53:20;100017.53;;;8.39;100.00
56876;BME280;42622;49.972;8.452;2023-04-22T00:55:46;100023.56;;;8.41;100.00
56876;BME280;42622;49.972;8.452;2023-04-22T00:58:12;100018.28;;;8.41;100.00
56876;BME280;42622;49.972;8.452;2023-04-22T01:00:39;100015.66;;;8.41;100.00
56876;BME280;42622;49.972;8.452;2023-04-22T01:03:05;100016.38;;;8.43;100.00
56876;BME280;42622;49.972;8.452;2023-04-22T01:05:33;100012.81;;;8.44;100.00
56876;BME280;42622;49.972;8.452;2023-04-22T01:07:59;100024.09;;;8.46;100.00
56876;BME280;42622;49.972;8.452;2023-04-22T01:10:25;100020.50;;;8.47;100.00
56876;BME280;42622;49.972;8.452;2023-04-22T01:12:50;100017.88;;;8.47;100.00
56876;BME280;42622;49.972;8.452;2023-04-22T01:15:16;100021.34;;;8.48;100.00
56876;BME280;42622;49.972;8.452;2023-04-22T01:17:44;100014.41;;;8.47;100.00
56876;BME280;42622;49.972;8.452;2023-04-22T01:20:10;100005.53;;;8.48;100.00
56876;BME280;42622;49.972;8.452;2023-04-22T01:22:42;100010.94;;;8.46;100.00
56876;BME280;42622;49.972;8.452;2023-04-22T01:25:10;100011.13;;;8.43;100.00
56876;BME280;42622;49.972;8.452;2023-04-22T01:27:39;100010.41;;;8.41;100.00
56876;BME280;42622;49.972;8.452;2023-04-22T01:30:07;100016.59;;;8.40;100.00
56876;BME280;42622;49.972;8.452;2023-04-22T01:32:34;100011.31;;;8.40;100.00
56876;BME280;42622;49.972;8.452;2023-04-22T01:35:00;100011.44;;;8.38;100.00
56876;BME280;42622;49.972;8.452;2023-04-22T01:37:28;100014.06;;;8.38;100.00
56876;BME280;42622;49.972;8.452;2023-04-22T01:39:56;100014.06;;;8.38;100.00
56876;BME280;42622;49.972;8.452;2023-04-22T01:42:24;100013.22;;;8.38;100.00
56876;BME280;42622;49.972;8.452;2023-04-22T01:44:50;100014.91;;;8.39;100.00
56876;BME280;42622;49.972;8.452;2023-04-22T01:47:15;100019.22;;;8.40;100.00
56876;BME280;42622;49.972;8.452;2023-04-22T01:49:41;100011.31;;;8.40;100.00
56876;BME280;42622;49.972;8.452;2023-04-22T01:52:07;100011.31;;;8.40;100.00
56876;BME280;42622;49.972;8.452;2023-04-22T01:54:33;100010.59;;;8.38;100.00
56876;BME280;42622;49.972;8.452;2023-04-22T01:57:07;100008.84;;;8.37;100.00
56876;BME280;42622;49.972;8.452;2023-04-22T01:59:38;100012.38;;;8.37;100.00
56876;BME280;42622;49.972;8.452;2023-04-22T02:02:04;100004.53;;;8.36;100.00
56876;BME280;42622;49.972;8.452;2023-04-22T02:04:31;100010.63;;;8.36;100.00
56876;BME280;42622;49.972;8.452;2023-04-22T02:06:57;100012.44;;;8.36;100.00
56876;BME280;42622;49.972;8.452;2023-04-22T02:09:23;100006.44;;;8.34;100.00
56876;BME280;42622;49.972;8.452;2023-04-22T02:11:49;100013.38;;;8.35;100.00
56876;BME280;42622;49.972;8.452;2023-04-22T02:14:15;100014.34;;;8.34;100.00
56876;BME280;42622;49.972;8.452;2023-04-22T02:16:41;100014.34;;;8.34;100.00
56876;BME280;42622;49.972;8.452;2023-04-22T02:19:07;100016.03;;;8.35;100.00
56876;BME280;42622;49.972;8.452;2023-04-22T02:21:32;100009.06;;;8.34;100.00
56876;BME280;42622;49.972;8.452;2023-04-22T02:23:58;100016.03;;;8.35;100.00
56876;BME280;42622;49.972;8.452;2023-04-22T02:26:24;100008.19;;;8.33;100.00
56876;BME280;42622;49.972;8.452;2023-04-22T02:28:51;100008.44;;;8.30;100.00
56876;BME280;42622;49.972;8.452;2023-04-22T02:31:18;100010.19;;;8.30;100.00
56876;BME280;42622;49.972;8.452;2023-04-22T02:33:44;100008.63;;;8.27;100.00
56876;BME280;42622;49.972;8.452;2023-04-22T02:36:10;100007.66;;;8.28;100.00
56876;BME280;42622;49.972;8.452;2023-04-22T02:38:36;99997.97;;;8.29;100.00
56876;BME280;42622;49.972;8.452;2023-04-22T02:41:02;99998.75;;;8.31;100.00
56876;BME280;42622;49.972;8.452;2023-04-22T02:43:28;100006.63;;;8.31;100.00
56876;BME280;42622;49.972;8.452;2023-04-22T02:45:54;99997.13;;;8.28;100.00
56876;BME280;42622;49.972;8.452;2023-04-22T02:48:19;100008.72;;;8.26;100.00
56876;BME280;42622;49.972;8.452;2023-04-22T02:50:45;100011.34;;;8.26;100.00
56876;BME280;42622;49.972;8.452;2023-04-22T02:53:11;100015.75;;;8.25;100.00
56876;BME280;42622;49.972;8.452;2023-04-22T02:55:39;100013.97;;;8.26;100.00
56876;BME280;42622;49.972;8.452;2023-04-22T02:58:06;100015.66;;;8.27;100.00
56876;BME280;42622;49.972;8.452;2023-04-22T03:00:33;100005.13;;;8.27;100.00
56876;BME280;42622;49.972;8.452;2023-04-22T03:02:59;100020.91;;;8.27;100.00
56876;BME280;42622;49.972;8.452;2023-04-22T03:05:25;100020.38;;;8.22;100.00
56876;BME280;42622;49.972;8.452;2023-04-22T03:07:52;100010.81;;;8.21;100.00
56876;BME280;42622;49.972;8.452;2023-04-22T03:10:18;100012.69;;;8.19;100.00
56876;BME280;42622;49.972;8.452;2023-04-22T03:12:44;100018.91;;;8.18;100.00
56876;BME280;42622;49.972;8.452;2023-04-22T03:15:10;100025.13;;;8.17;100.00
56876;BME280;42622;49.972;8.452;2023-04-22T03:17:36;100013.06;;;8.12;100.00
56876;BME280;42622;49.972;8.452;2023-04-22T03:20:01;100017.59;;;8.10;100.00
56876;BME280;42622;49.972;8.452;2023-04-22T03:22:27;100016.84;;;8.08;100.00
56876;BME280;42622;49.972;8.452;2023-04-22T03:24:53;100011.59;;;8.08;100.00
56876;BME280;42622;49.972;8.452;2023-04-22T03:27:19;100017.03;;;8.05;100.00
56876;BME280;42622;49.972;8.452;2023-04-22T03:29:44;100026.84;;;8.03;100.00
56876;BME280;42622;49.972;8.452;2023-04-22T03:32:10;100022.53;;;8.02;100.00
56876;BME280;42622;49.972;8.452;2023-04-22T03:34:36;100020.81;;;8.01;100.00
56876;BME280;42622;49.972;8.452;2023-04-22T03:37:02;100013.22;;;7.97;100.00
56876;BME280;42622;49.972;8.452;2023-04-22T03:39:27;100015.09;;;7.95;100.00
56876;BME280;42622;49.972;8.452;2023-04-22T03:41:53;100015.38;;;7.90;100.00
56876;BME280;42622;49.972;8.452;2023-04-22T03:44:19;100011.28;;;7.86;100.00
56876;BME280;42622;49.972;8.452;2023-04-22T03:46:44;100014.09;;;7.83;100.00
56876;BME280;42622;49.972;8.452;2023-04-22T03:49:11;100013.31;;;7.81;100.00
56876;BME280;42622;49.972;8.452;2023-04-22T03:51:36;100007.34;;;7.79;100.00
56876;BME280;42622;49.972;8.452;2023-04-22T03:54:02;100009.19;;;7.77;100.00
56876;BME280;42622;49.972;8.452;2023-04-22T03:56:28;100010.16;;;7.76;100.00
56876;BME280;42622;49.972;8.452;2023-04-22T03:58:53;100003.41;;;7.72;100.00
56876;BME280;42622;49.972;8.452;2023-04-22T04:01:19;100006.09;;;7.70;100.00
56876;BME280;42622;49.972;8.452;2023-04-22T04:03:45;100008.84;;;7.69;100.00
56876;BME280;42622;49.972;8.452;2023-04-22T04:06:10;100009.81;;;7.68;100.00
56876;BME280;42622;49.972;8.452;2023-04-22T04:08:36;100015.25;;;7.64;100.00
56876;BME280;42622;49.972;8.452;2023-04-22T04:11:02;100003.97;;;7.62;100.00
56876;BME280;42622;49.972;8.452;2023-04-22T04:13:27;100004.38;;;7.56;100.00
56876;BME280;42622;49.972;8.452;2023-04-22T04:15:57;100002.84;;;7.52;100.00
56876;BME280;42622;49.972;8.452;2023-04-22T04:18:24;99998.72;;;7.48;100.00
56876;BME280;42622;49.972;8.452;2023-04-22T04:20:51;100002.47;;;7.44;100.00
56876;BME280;42622;49.972;8.452;2023-04-22T04:23:16;100003.63;;;7.40;100.00
56876;BME280;42622;49.972;8.452;2023-04-22T04:25:42;100005.66;;;7.35;100.00
56876;BME280;42622;49.972;8.452;2023-04-22T04:28:10;99998.91;;;7.31;100.00
56876;BME280;42622;49.972;8.452;2023-04-22T04:30:36;99998.25;;;7.27;100.00
56876;BME280;42622;49.972;8.452;2023-04-22T04:33:03;99997.59;;;7.24;100.00
56876;BME280;42622;49.972;8.452;2023-04-22T04:35:35;99999.66;;;7.18;100.00
56876;BME280;42622;49.972;8.452;2023-04-22T04:38:03;99996.38;;;7.15;100.00
56876;BME280;42622;49.972;8.452;2023-04-22T04:40:33;99991.19;;;7.13;100.00
56876;BME280;42622;49.972;8.452;2023-04-22T04:43:00;99987.00;;;7.11;100.00
56876;BME280;42622;49.972;8.452;2023-04-22T04:45:33;99995.44;;;7.16;100.00
56876;BME280;42622;49.972;8.452;2023-04-22T04:48:01;99993.56;;;7.18;100.00
56876;BME280;42622;49.972;8.452;2023-04-22T04:50:27;100002.84;;;7.24;100.00
56876;BME280;42622;49.972;8.452;2023-04-22T04:52:53;99993.09;;;7.26;100.00
56876;BME280;42622;49.972;8.452;2023-04-22T04:55:19;99994.59;;;7.30;100.00
56876;BME280;42622;49.972;8.452;2023-04-22T04:57:46;99991.59;;;7.36;100.00
56876;BME280;42622;49.972;8.452;2023-04-22T05:00:12;99989.50;;;7.41;100.00
56876;BME280;42622;49.972;8.452;2023-04-22T05:02:39;99997.16;;;7.46;100.00
56876;BME280;42622;49.972;8.452;2023-04-22T05:05:06;99987.28;;;7.49;100.00
56876;BME280;42622;49.972;8.452;2023-04-22T05:07:33;99978.25;;;7.53;100.00
56876;BME280;42622;49.972;8.452;2023-04-22T05:10:00;99984.06;;;7.58;100.00
56876;BME280;42622;49.972;8.452;2023-04-22T05:12:25;99983.75;;;7.63;100.00
56876;BME280;42622;49.972;8.452;2023-04-22T05:14:52;99990.63;;;7.65;100.00
56876;BME280;42622;49.972;8.452;2023-04-22T05:17:19;99989.47;;;7.70;100.00
56876;BME280;42622;49.972;8.452;2023-04-22T05:19:45;100000.84;;;7.70;100.00
56876;BME280;42622;49.972;8.452;2023-04-22T05:22:10;100000.66;;;7.73;100.00
56876;BME280;42622;49.972;8.452;2023-04-22T05:24:36;100004.91;;;7.76;100.00
56876;BME280;42622;49.972;8.452;2023-04-22T05:27:02;100009.97;;;7.79;100.00
56876;BME280;42622;49.972;8.452;2023-04-22T05:29:28;100015.78;;;7.84;100.00
56876;BME280;42622;49.972;8.452;2023-04-22T05:31:54;100023.28;;;7.90;100.00
56876;BME280;42622;49.972;8.452;2023-04-22T05:34:19;100017.63;;;7.96;100.00
56876;BME280;42622;49.972;8.452;2023-04-22T05:36:45;100023.91;;;8.08;100.00
56876;BME280;42622;49.972;8.452;2023-04-22T05:39:11;100012.69;;;8.19;100.00
56876;BME280;42622;49.972;8.452;2023-04-22T05:41:37;100005.56;;;8.33;100.00
56876;BME280;42622;49.972;8.452;2023-04-22T05:44:03;100017.34;;;8.42;100.00
56876;BME280;42622;49.972;8.452;2023-04-22T05:59:05;100018.59;;;8.89;100.00
56876;BME280;42622;49.972;8.452;2023-04-22T06:01:31;100033.06;;;8.96;100.00
56876;BME280;42622;49.972;8.452;2023-04-22T06:03:57;100034.53;;;9.00;100.00
56876;BME280;42622;49.972;8.452;2023-04-22T06:06:23;100039.19;;;9.09;100.00
56876;BME280;42622;49.972;8.452;2023-04-22T06:08:49;100044.59;;;9.21;100.00
56876;BME280;42622;49.972;8.452;2023-04-22T06:11:14;100034.88;;;9.34;100.00
56876;BME280;42622;49.972;8.452;2023-04-22T06:13:40;100036.44;;;9.49;100.00
56876;BME280;42622;49.972;8.452;2023-04-22T06:16:06;100033.28;;;9.70;100.00
56876;BME280;42622;49.972;8.452;2023-04-22T06:18:31;100034.81;;;9.85;100.00
56876;BME280;42622;49.972;8.452;2023-04-22T06:20:57;100035.63;;;9.98;100.00
56876;BME280;42622;49.972;8.452;2023-04-22T06:23:23;100031.88;;;10.14;100.00
56876;BME280;42622;49.972;8.452;2023-04-22T06:25:49;100028.00;;;10.43;100.00
56876;BME280;42622;49.972;8.452;2023-04-22T06:28:14;100028.97;;;10.77;100.00
56876;BME280;42622;49.972;8.452;2023-04-22T06:30:40;100025.22;;;11.04;100.00
56876;BME280;42622;49.972;8.452;2023-04-22T06:33:05;100028.97;;;11.24;100.00
56876;BME280;42622;49.972;8.452;2023-04-22T06:35:31;100024.78;;;11.33;100.00
56876;BME280;42622;49.972;8.452;2023-04-22T06:37:57;100025.16;;;11.39;100.00
56876;BME280;42622;49.972;8.452;2023-04-22T06:40:23;100021.88;;;11.36;100.00
56876;BME280;42622;49.972;8.452;2023-04-22T06:42:48;100024.69;;;11.45;100.00
56876;BME280;42622;49.972;8.452;2023-04-22T06:45:14;100027.31;;;11.79;100.00
56876;BME280;42622;49.972;8.452;2023-04-22T06:47:40;100030.41;;;12.18;100.00
56876;BME280;42622;49.972;8.452;2023-04-22T06:50:08;100028.63;;;12.83;100.00
56876;BME280;42622;49.972;8.452;2023-04-22T06:52:35;100027.84;;;13.34;100.00
56876;BME280;42622;49.972;8.452;2023-04-22T06:55:02;100028.38;;;13.89;100.00
56876;BME280;42622;49.972;8.452;2023-04-22T06:57:31;100030.97;;;14.29;100.00
56876;BME280;42622;49.972;8.452;2023-04-22T06:59:57;100033.00;;;14.66;100.00
56876;BME280;42622;49.972;8.452;2023-04-22T07:02:23;100028.06;;;15.10;100.00
56876;BME280;42622;49.972;8.452;2023-04-22T07:04:49;100021.00;;;15.38;100.00
56876;BME280;42622;49.972;8.452;2023-04-22T07:07:15;100021.91;;;15.66;100.00
56876;BME280;42622;49.972;8.452;2023-04-22T07:09:41;100021.28;;;15.82;100.00
56876;BME280;42622;49.972;8.452;2023-04-22T07:12:07;100017.97;;;15.98;100.00
56876;BME280;42622;49.972;8.452;2023-04-22T07:14:32;100016.97;;;16.27;100.00
56876;BME280;42622;49.972;8.452;2023-04-22T07:16:59;100021.31;;;16.63;100.00
56876;BME280;42622;49.972;8.452;2023-04-22T07:19:25;100012.63;;;16.97;100.00
56876;BME280;42622;49.972;8.452;2023-04-22T07:21:51;100010.69;;;17.07;100.00
56876;BME280;42622;49.972;8.452;2023-04-22T07:24:16;100006.31;;;17.06;100.00
56876;BME280;42622;49.972;8.452;2023-04-22T07:26:43;100001.00;;;17.06;100.00
56876;BME280;42622;49.972;8.452;2023-04-22T07:29:09;100000.59;;;17.19;100.00
56876;BME280;42622;49.972;8.452;2023-04-22T07:31:37;99998.16;;;17.34;100.00
56876;BME280;42622;49.972;8.452;2023-04-22T07:34:03;100000.97;;;17.58;100.00
56876;BME280;42622;49.972;8.452;2023-04-22T07:36:29;99997.28;;;17.59;100.00
56876;BME280;42622;49.972;8.452;2023-04-22T07:38:57;99995.09;;;17.55;100.00
56876;BME280;42622;49.972;8.452;2023-04-22T07:41:23;99988.84;;;17.38;100.00
56876;BME280;42622;49.972;8.452;2023-04-22T07:43:48;99996.34;;;17.08;100.00
56876;BME280;42622;49.972;8.452;2023-04-22T07:46:14;100003.34;;;16.83;100.00
56876;BME280;42622;49.972;8.452;2023-04-22T07:48:40;99999.50;;;16.50;100.00
56876;BME280;42622;49.972;8.452;2023-04-22T07:51:06;99996.47;;;16.45;100.00
56876;BME280;42622;49.972;8.452;2023-04-22T07:53:31;99985.63;;;16.64;100.00
56876;BME280;42622;49.972;8.452;2023-04-22T07:55:57;99991.00;;;16.82;100.00
56876;BME280;42622;49.972;8.452;2023-04-22T07:58:22;99993.94;;;16.97;100.00
56876;BME280;42622;49.972;8.452;2023-04-22T08:00:48;100001.94;;;17.23;100.00
56876;BME280;42622;49.972;8.452;2023-04-22T08:03:14;99997.13;;;17.53;100.00
56876;BME280;42622;49.972;8.452;2023-04-22T08:05:40;99996.81;;;17.98;100.00
56876;BME280;42622;49.972;8.452;2023-04-22T08:08:06;99989.03;;;18.29;100.00
56876;BME280;42622;49.972;8.452;2023-04-22T08:10:32;99996.25;;;18.53;100.00
56876;BME280;42622;49.972;8.452;2023-04-22T08:12:58;99992.41;;;18.31;100.00
56876;BME280;42622;49.972;8.452;2023-04-22T08:15:24;99995.19;;;18.13;100.00
56876;BME280;42622;49.972;8.452;2023-04-22T08:17:49;99989.41;;;17.84;100.00
56876;BME280;42622;49.972;8.452;2023-04-22T08:20:17;99991.69;;;17.71;100.00
56876;BME280;42622;49.972;8.452;2023-04-22T08:22:43;99987.41;;;17.78;100.00
56876;BME280;42622;49.972;8.452;2023-04-22T08:25:10;99987.41;;;17.78;100.00
56876;BME280;42622;49.972;8.452;2023-04-22T08:27:37;99982.25;;;17.58;100.00
56876;BME280;42622;49.972;8.452;2023-04-22T08:30:06;99983.91;;;17.51;100.00
56876;BME280;42622;49.972;8.452;2023-04-22T08:32:32;99980.66;;;17.39;100.00
56876;BME280;42622;49.972;8.452;2023-04-22T08:34:57;99990.59;;;17.55;100.00
56876;BME280;42622;49.972;8.452;2023-04-22T08:37:24;99991.69;;;17.71;100.00
56876;BME280;42622;49.972;8.452;2023-04-22T08:39:52;99988.13;;;17.96;100.00
56876;BME280;42622;49.972;8.452;2023-04-22T08:42:19;99989.34;;;18.10;100.00
56876;BME280;42622;49.972;8.452;2023-04-22T08:44:47;99992.84;;;18.19;100.00
56876;BME280;42622;49.972;8.452;2023-04-22T08:47:15;99990.19;;;18.27;100.00
56876;BME280;42622;49.972;8.452;2023-04-22T08:49:45;99988.19;;;18.21;100.00
56876;BME280;42622;49.972;8.452;2023-04-22T08:52:11;99979.50;;;18.27;100.00
56876;BME280;42622;49.972;8.452;2023-04-22T08:54:40;99980.00;;;18.22;100.00
56876;BME280;42622;49.972;8.452;2023-04-22T08:57:07;99986.16;;;18.06;100.00
56876;BME280;42622;49.972;8.452;2023-04-22T08:59:36;99983.41;;;17.90;100.00
56876;BME280;42622;49.972;8.452;2023-04-22T09:02:04;99975.53;;;17.80;100.00
56876;BME280;42622;49.972;8.452;2023-04-22T09:04:32;99975.28;;;17.65;100.00
56876;BME280;42622;49.972;8.452;2023-04-22T09:07:00;99985.97;;;17.65;100.00
56876;BME280;42622;49.972;8.452;2023-04-22T09:09:28;99988.28;;;17.60;100.00
56876;BME280;42622;49.972;8.452;2023-04-22T09:11:56;99974.72;;;17.54;100.00
56876;BME280;42622;49.972;8.452;2023-04-22T09:14:23;99976.91;;;17.58;100.00
56876;BME280;42622;49.972;8.452;2023-04-22T09:16:50;99979.06;;;17.55;100.00
56876;BME280;42622;49.972;8.452;2023-04-22T09:19:16;99978.88;;;17.48;100.00
56876;BME280;42622;49.972;8.452;2023-04-22T09:21:42;99972.16;;;17.44;100.00
56876;BME280;42622;49.972;8.452;2023-04-22T09:24:10;99966.25;;;17.66;100.00
56876;BME280;42622;49.972;8.452;2023-04-22T09:26:41;99963.69;;;17.91;100.00
56876;BME280;42622;49.972;8.452;2023-04-22T09:29:12;99964.03;;;17.88;100.00
56876;BME280;42622;49.972;8.452;2023-04-22T09:31:39;99958.72;;;18.04;100.00
56876;BME280;42622;49.972;8.452;2023-04-22T09:34:07;99956.44;;;18.42;100.00
56876;BME280;42622;49.972;8.452;2023-04-22T09:36:33;99960.81;;;18.76;100.00
56876;BME280;42622;49.972;8.452;2023-04-22T09:39:04;99954.94;;;18.97;100.00
56876;BME280;42622;49.972;8.452;2023-04-22T09:41:36;99958.94;;;19.09;100.00
56876;BME280;42622;49.972;8.452;2023-04-22T09:44:09;99955.56;;;19.23;100.00
56876;BME280;42622;49.972;8.452;2023-04-22T09:46:42;99959.38;;;19.37;100.00
56876;BME280;42622;49.972;8.452;2023-04-22T09:49:08;99958.84;;;19.42;100.00
56876;BME280;42622;49.972;8.452;2023-04-22T09:51:39;99957.38;;;19.31;99.64
56876;BME280;42622;49.972;8.452;2023-04-22T09:54:08;99955.00;;;19.36;100.00
56876;BME280;42622;49.972;8.452;2023-04-22T09:56:41;99954.75;;;19.62;98.67
56876;BME280;42622;49.972;8.452;2023-04-22T09:59:28;99947.69;;;19.77;98.74
56876;BME280;42622;49.972;8.452;2023-04-22T10:01:58;99948.16;;;20.12;99.52
56876;BME280;42622;49.972;8.452;2023-04-22T10:04:29;99933.22;;;20.64;96.00
56876;BME280;42622;49.972;8.452;2023-04-22T10:06:55;99937.25;;;20.97;93.13
56876;BME280;42622;49.972;8.452;2023-04-22T10:09:23;99937.72;;;21.16;88.57
56876;BME280;42622;49.972;8.452;2023-04-22T10:11:52;99931.97;;;21.19;87.48
56876;BME280;42622;49.972;8.452;2023-04-22T10:14:23;99927.78;;;21.16;88.73
56876;BME280;42622;49.972;8.452;2023-04-22T10:16:59;99930.97;;;21.50;86.92
56876;BME280;42622;49.972;8.452;2023-04-22T10:19:27;99927.16;;;21.74;85.67
56876;BME280;42622;49.972;8.452;2023-04-22T10:21:58;99923.47;;;21.96;82.97
56876;BME280;42622;49.972;8.452;2023-04-22T10:24:34;99916.88;;;21.99;82.63
56876;BME280;42622;49.972;8.452;2023-04-22T10:27:04;99916.59;;;21.93;81.76
56876;BME280;42622;49.972;8.452;2023-04-22T10:29:39;99917.31;;;22.02;78.62
56876;BME280;42622;49.972;8.452;2023-04-22T10:34:35;99914.66;;;21.51;80.77
56876;BME280;42622;49.972;8.452;2023-04-22T10:37:09;99909.91;;;21.68;79.61
56876;BME280;42622;49.972;8.452;2023-04-22T10:39:38;99908.81;;;21.99;79.13
56876;BME280;42622;49.972;8.452;2023-04-22T10:42:12;99906.22;;;22.12;75.79
56876;BME280;42622;49.972;8.452;2023-04-22T10:47:34;99898.88;;;21.63;75.10
56876;BME280;42622;49.972;8.452;2023-04-22T10:50:20;99896.16;;;21.78;75.32
56876;BME280;42622;49.972;8.452;2023-04-22T10:52:50;99886.69;;;22.46;72.96
56876;BME280;42622;49.972;8.452;2023-04-22T10:55:19;99887.75;;;23.01;68.60
56876;BME280;42622;49.972;8.452;2023-04-22T10:57:49;99897.97;;;22.84;67.47
56876;BME280;42622;49.972;8.452;2023-04-22T11:05:31;99881.31;;;22.03;65.34
56876;BME280;42622;49.972;8.452;2023-04-22T11:08:08;99878.41;;;22.05;63.36
56876;BME280;42622;49.972;8.452;2023-04-22T11:10:47;99875.34;;;22.08;62.86
56876;BME280;42622;49.972;8.452;2023-04-22T11:13:20;99881.16;;;22.11;63.11
56876;BME280;42622;49.972;8.452;2023-04-22T11:15:50;99876.25;;;22.36;61.25
56876;BME280;42622;49.972;8.452;2023-04-22T11:18:24;99874.41;;;22.65;58.42
56876;BME280;42622;49.972;8.452;2023-04-22T11:20:53;99862.72;;;22.79;56.85
56876;BME280;42622;49.972;8.452;2023-04-22T11:23:25;99869.31;;;23.05;56.93
56876;BME280;42622;49.972;8.452;2023-04-22T11:26:02;99870.69;;;23.35;58.01
56876;BME280;42622;49.972;8.452;2023-04-22T11:28:30;99874.13;;;23.57;56.12
56876;BME280;42622;49.972;8.452;2023-04-22T11:31:07;99866.19;;;23.49;47.86
56876;BME280;42622;49.972;8.452;2023-04-22T11:33:36;99876.63;;;23.11;44.96
56876;BME280;42622;49.972;8.452;2023-04-22T11:36:04;99863.06;;;22.98;45.44
56876;BME280;42622;49.972;8.452;2023-04-22T11:38:37;99865.53;;;22.99;43.88
56876;BME280;42622;49.972;8.452;2023-04-22T11:41:03;99874.50;;;23.06;44.45
56876;BME280;42622;49.972;8.452;2023-04-22T11:43:29;99864.44;;;23.22;44.52
56876;BME280;42622;49.972;8.452;2023-04-22T11:45:56;99867.75;;;23.24;43.50
56876;BME280;42622;49.972;8.452;2023-04-22T11:48:22;99862.34;;;23.24;43.67
56876;BME280;42622;49.972;8.452;2023-04-22T11:51:09;99860.34;;;23.32;44.34
56876;BME280;42622;49.972;8.452;2023-04-22T11:53:36;99859.13;;;23.42;45.29
56876;BME280;42622;49.972;8.452;2023-04-22T11:56:04;99863.31;;;23.51;43.63
56876;BME280;42622;49.972;8.452;2023-04-22T11:58:29;99855.84;;;23.53;43.07
56876;BME280;42622;49.972;8.452;2023-04-22T12:00:58;99856.75;;;23.73;43.51
56876;BME280;42622;49.972;8.452;2023-04-22T12:03:27;99859.25;;;23.81;43.46
56876;BME280;42622;49.972;8.452;2023-04-22T12:05:57;99856.81;;;23.87;43.16
56876;BME280;42622;49.972;8.452;2023-04-22T12:08:33;99858.03;;;23.84;41.78
56876;BME280;42622;49.972;8.452;2023-04-22T12:11:05;99853.03;;;23.81;42.16
56876;BME280;42622;49.972;8.452;2023-04-22T12:16:11;99857.22;;;23.83;44.12
56876;BME280;42622;49.972;8.452;2023-04-22T12:18:41;99857.66;;;24.07;43.77
56876;BME280;42622;49.972;8.452;2023-04-22T12:21:15;99848.97;;;24.25;43.29
56876;BME280;42622;49.972;8.452;2023-04-22T12:23:48;99840.00;;;24.38;42.38
56876;BME280;42622;49.972;8.452;2023-04-22T12:26:18;99845.19;;;24.19;41.22
56876;BME280;42622;49.972;8.452;2023-04-22T12:28:47;99844.78;;;23.89;40.67
56876;BME280;42622;49.972;8.452;2023-04-22T12:31:14;99845.34;;;23.71;40.62
56876;BME280;42622;49.972;8.452;2023-04-22T12:33:40;99854.22;;;23.65;41.11
56876;BME280;42622;49.972;8.452;2023-04-22T12:36:06;99835.69;;;23.49;40.92
56876;BME280;42622;49.972;8.452;2023-04-22T12:38:33;99833.75;;;23.29;41.40
56876;BME280;42622;49.972;8.452;2023-04-22T12:41:01;99846.47;;;23.49;42.52
56876;BME280;42622;49.972;8.452;2023-04-22T12:43:29;99835.97;;;23.67;42.13
56876;BME280;42622;49.972;8.452;2023-04-22T12:45:58;99843.75;;;23.42;41.88
56876;BME280;42622;49.972;8.452;2023-04-22T12:48:23;99848.31;;;22.94;41.54
56876;BME280;42622;49.972;8.452;2023-04-22T12:50:49;99848.84;;;22.54;42.49
56876;BME280;42622;49.972;8.452;2023-04-22T12:53:15;99833.06;;;22.23;43.37
56876;BME280;42622;49.972;8.452;2023-04-22T12:55:41;99848.56;;;22.00;44.31
56876;BME280;42622;49.972;8.452;2023-04-22T12:58:07;99838.38;;;21.74;44.00
56876;BME280;42622;49.972;8.452;2023-04-22T13:00:33;99843.72;;;21.37;44.30
56876;BME280;42622;49.972;8.452;2023-04-22T13:02:59;99839.41;;;21.07;45.96
56876;BME280;42622;49.972;8.452;2023-04-22T13:05:25;99839.69;;;20.82;46.62
56876;BME280;42622;49.972;8.452;2023-04-22T13:07:52;99849.75;;;20.65;47.17
56876;BME280;42622;49.972;8.452;2023-04-22T13:10:17;99849.03;;;20.48;47.72
56876;BME280;42622;49.972;8.452;2023-04-22T13:12:44;99844.47;;;20.34;47.89
56876;BME280;42622;49.972;8.452;2023-04-22T13:15:11;99850.00;;;20.18;48.69
56876;BME280;42622;49.972;8.452;2023-04-22T13:17:37;99843.72;;;20.02;50.15
56876;BME280;42622;49.972;8.452;2023-04-22T13:20:05;99847.19;;;19.88;50.58